Time;durP1;ratioP1;P1;durP2;ratioP2;P2;SDS_P1;SDS_P2;PMS_P1;PMS_P2;Temp;Humidity;BMP_temperature;BMP_pressure;BME280_temperature;BME280_humidity;BME280_pressure;Samples;Min_cycle;Max_cycle;Signal;HPM_P1;HPM_P2
2022/11/21 00:01:23;;;;;;;10.57;3.15;;;;;;;;;;5013228;28;20054;-70
2022/11/21 00:03:49;;;;;;;14.57;3.78;;;;;;;;;;5014826;28;20567;-70
2022/11/21 00:06:16;;;;;;;16.08;4.15;;;;;;;;;;5027946;28;20052;-70
2022/11/21 00:08:42;;;;;;;14.13;4.32;;;;;;;;;;5033440;28;20053;-71
2022/11/21 00:11:08;;;;;;;9.32;3.15;;;;;;;;;;5023399;28;20133;-70
2022/11/21 00:13:34;;;;;;;26.08;6.18;;;;;;;;;;5034521;28;20048;-71
2022/11/21 00:16:07;;;;;;;13.05;4.07;;;;;;;;;;5032968;28;20126;-71
2022/11/21 00:18:34;;;;;;;11.27;3.25;;;;;;;;;;5032645;28;20049;-70
2022/11/21 00:21:04;;;;;;;14.35;3.45;;;;;;;;;;5033054;28;20041;-70
2022/11/21 00:23:30;;;;;;;19.27;5.35;;;;;;;;;;5024213;28;20041;-71
2022/11/21 00:25:56;;;;;;;13.73;3.80;;;;;;;;;;5026158;28;20046;-70
2022/11/21 00:28:22;;;;;;;16.58;3.33;;;;;;;;;;5032769;28;20045;-70
2022/11/21 00:30:48;;;;;;;18.17;4.22;;;;;;;;;;5031844;28;20053;-71
2022/11/21 00:33:14;;;;;;;16.75;4.15;;;;;;;;;;5032333;28;20030;-71
2022/11/21 00:35:41;;;;;;;18.10;5.38;;;;;;;;;;5031413;28;20042;-71
2022/11/21 00:38:07;;;;;;;15.50;3.17;;;;;;;;;;5031968;28;20534;-71
2022/11/21 00:40:33;;;;;;;16.92;4.22;;;;;;;;;;5024385;28;20037;-71
2022/11/21 00:42:59;;;;;;;14.77;4.03;;;;;;;;;;5032544;28;20042;-72
2022/11/21 00:45:25;;;;;;;18.85;5.30;;;;;;;;;;5033556;28;20052;-71
2022/11/21 00:47:51;;;;;;;15.43;4.32;;;;;;;;;;5033428;28;20041;-71
2022/11/21 00:50:17;;;;;;;10.02;3.67;;;;;;;;;;5032039;28;20519;-71
2022/11/21 00:52:43;;;;;;;23.67;5.95;;;;;;;;;;5032212;28;20057;-71
2022/11/21 00:55:09;;;;;;;20.27;5.15;;;;;;;;;;5026887;28;20478;-71
2022/11/21 00:57:35;;;;;;;16.70;3.90;;;;;;;;;;5027045;28;20041;-72
2022/11/21 01:00:01;;;;;;;18.08;5.00;;;;;;;;;;5024863;28;20543;-71
2022/11/21 01:02:27;;;;;;;18.02;3.13;;;;;;;;;;5033259;28;20073;-71
2022/11/21 01:04:53;;;;;;;16.67;3.95;;;;;;;;;;5037313;28;20045;-71
2022/11/21 01:07:20;;;;;;;18.77;3.88;;;;;;;;;;5051774;28;20045;-71
2022/11/21 01:09:47;;;;;;;12.57;5.03;;;;;;;;;;5047582;28;20061;-71
2022/11/21 01:12:13;;;;;;;15.85;4.28;;;;;;;;;;5050568;28;20033;-71
2022/11/21 01:14:39;;;;;;;12.27;4.68;;;;;;;;;;5053550;28;20037;-71
2022/11/21 01:17:05;;;;;;;16.23;3.83;;;;;;;;;;5051190;28;20041;-71
2022/11/21 01:19:31;;;;;;;16.98;3.70;;;;;;;;;;5052049;28;20550;-71
2022/11/21 01:21:57;;;;;;;27.48;4.40;;;;;;;;;;5029092;28;20052;-71
2022/11/21 01:24:23;;;;;;;23.38;5.22;;;;;;;;;;5047163;28;20041;-71
2022/11/21 01:26:50;;;;;;;14.27;3.58;;;;;;;;;;5052934;28;20041;-71
2022/11/21 01:29:16;;;;;;;12.23;3.70;;;;;;;;;;5047449;28;20122;-71
2022/11/21 01:31:42;;;;;;;9.07;3.67;;;;;;;;;;5054318;28;20079;-71
2022/11/21 01:34:08;;;;;;;12.80;3.10;;;;;;;;;;5027783;28;20136;-71
2022/11/21 01:36:34;;;;;;;21.05;4.90;;;;;;;;;;5050826;28;20048;-71
2022/11/21 01:39:02;;;;;;;14.50;4.32;;;;;;;;;;5030982;28;20053;-71
2022/11/21 01:41:32;;;;;;;13.35;4.43;;;;;;;;;;5051761;28;20139;-71
2022/11/21 01:43:58;;;;;;;17.45;5.03;;;;;;;;;;5034087;28;20041;-71
2022/11/21 01:46:24;;;;;;;14.68;4.30;;;;;;;;;;5053329;28;20098;-71
2022/11/21 01:49:09;;;;;;;21.10;4.03;;;;;;;;;;5053521;28;20045;-71
2022/11/21 01:51:48;;;;;;;15.02;3.50;;;;;;;;;;5051228;28;20045;-71
2022/11/21 01:54:16;;;;;;;18.10;4.78;;;;;;;;;;5026637;28;20044;-71
2022/11/21 01:57:01;;;;;;;13.38;4.05;;;;;;;;;;5024302;28;20044;-71
2022/11/21 01:59:30;;;;;;;18.10;4.10;;;;;;;;;;5049104;28;20048;-71
2022/11/21 02:01:57;;;;;;;10.05;4.22;;;;;;;;;;5050215;28;20045;-71
2022/11/21 02:04:25;;;;;;;14.93;3.25;;;;;;;;;;5057472;28;20061;-71
2022/11/21 02:06:51;;;;;;;24.52;4.57;;;;;;;;;;5055349;28;20049;-71
2022/11/21 02:09:17;;;;;;;16.85;3.65;;;;;;;;;;5051174;28;20054;-71
2022/11/21 02:11:54;;;;;;;9.68;4.25;;;;;;;;;;5054294;28;20095;-71
2022/11/21 02:14:20;;;;;;;16.80;4.90;;;;;;;;;;5054941;28;20110;-71
2022/11/21 02:16:46;;;;;;;10.35;3.95;;;;;;;;;;5055440;28;20040;-71
2022/11/21 02:19:16;;;;;;;14.43;4.75;;;;;;;;;;5053555;28;20161;-72
2022/11/21 02:21:46;;;;;;;13.05;3.95;;;;;;;;;;5052679;28;20572;-71
2022/11/21 02:24:24;;;;;;;12.30;4.07;;;;;;;;;;5052224;28;20121;-71
2022/11/21 02:26:51;;;;;;;13.38;3.45;;;;;;;;;;5035388;28;20056;-71
2022/11/21 02:29:17;;;;;;;17.23;4.50;;;;;;;;;;5029837;28;20041;-72
2022/11/21 02:31:43;;;;;;;14.48;4.22;;;;;;;;;;5049796;28;20047;-71
2022/11/21 02:34:09;;;;;;;9.82;3.80;;;;;;;;;;5050845;28;20049;-71
2022/11/21 02:36:43;;;;;;;27.27;4.03;;;;;;;;;;5054560;28;20037;-71
2022/11/21 02:39:11;;;;;;;20.45;4.65;;;;;;;;;;5026040;28;20614;-71
2022/11/21 02:41:40;;;;;;;15.75;3.72;;;;;;;;;;5051767;28;20052;-71
2022/11/21 02:44:17;;;;;;;15.68;4.85;;;;;;;;;;5029419;28;20033;-71
2022/11/21 02:46:48;;;;;;;15.70;5.53;;;;;;;;;;5035617;28;20507;-71
2022/11/21 02:49:16;;;;;;;12.68;4.15;;;;;;;;;;5050969;28;20038;-70
2022/11/21 02:51:42;;;;;;;13.13;5.32;;;;;;;;;;5053219;28;20073;-71
2022/11/21 02:54:08;;;;;;;15.48;3.40;;;;;;;;;;5055208;28;20037;-71
2022/11/21 02:56:34;;;;;;;16.33;3.90;;;;;;;;;;5056321;28;20044;-71
2022/11/21 02:59:00;;;;;;;16.80;4.82;;;;;;;;;;5035358;28;20049;-71
2022/11/21 03:01:26;;;;;;;13.70;3.28;;;;;;;;;;5054698;28;20076;-71
2022/11/21 03:03:52;;;;;;;10.55;3.20;;;;;;;;;;5031182;28;20175;-70
2022/11/21 03:06:18;;;;;;;15.00;3.88;;;;;;;;;;5051503;28;20060;-71
2022/11/21 03:08:45;;;;;;;15.77;3.83;;;;;;;;;;5051559;28;20137;-71
2022/11/21 03:11:11;;;;;;;15.10;4.82;;;;;;;;;;5050956;28;20144;-71
2022/11/21 03:13:37;;;;;;;14.02;4.65;;;;;;;;;;5023146;28;20049;-71
2022/11/21 03:16:03;;;;;;;12.68;3.47;;;;;;;;;;5050794;28;21578;-71
2022/11/21 03:18:29;;;;;;;16.90;4.00;;;;;;;;;;5034373;28;20049;-71
2022/11/21 03:20:57;;;;;;;12.60;3.42;;;;;;;;;;5055550;28;20033;-72
2022/11/21 03:23:23;;;;;;;14.95;3.80;;;;;;;;;;5050354;28;20033;-71
2022/11/21 03:25:49;;;;;;;16.17;3.58;;;;;;;;;;5049400;28;20120;-71
2022/11/21 03:28:15;;;;;;;14.82;4.65;;;;;;;;;;5051418;28;20108;-71
2022/11/21 03:30:41;;;;;;;22.65;5.43;;;;;;;;;;5053152;28;20139;-71
2022/11/21 03:33:07;;;;;;;7.53;3.50;;;;;;;;;;5054569;28;20614;-71
2022/11/21 03:35:33;;;;;;;8.93;3.47;;;;;;;;;;5028058;28;20768;-71
2022/11/21 03:37:59;;;;;;;15.80;4.40;;;;;;;;;;5053243;28;20045;-71
2022/11/21 03:40:25;;;;;;;16.48;4.18;;;;;;;;;;5035346;28;20041;-72
2022/11/21 03:42:51;;;;;;;16.23;3.92;;;;;;;;;;5036320;28;20161;-71
2022/11/21 03:45:18;;;;;;;12.65;4.03;;;;;;;;;;5053124;28;20136;-71
2022/11/21 03:47:44;;;;;;;16.95;4.72;;;;;;;;;;5029099;28;20328;-71
2022/11/21 03:50:13;;;;;;;14.85;3.92;;;;;;;;;;5052676;28;20538;-71
2022/11/21 03:52:40;;;;;;;16.52;3.63;;;;;;;;;;5052212;28;20896;-71
2022/11/21 03:55:06;;;;;;;11.18;3.78;;;;;;;;;;5052861;28;20049;-71
2022/11/21 03:57:32;;;;;;;13.00;3.65;;;;;;;;;;5053023;28;20045;-71
2022/11/21 03:59:58;;;;;;;22.58;4.97;;;;;;;;;;5051633;28;20087;-71
2022/11/21 04:02:24;;;;;;;10.02;4.45;;;;;;;;;;5033523;28;20044;-71
2022/11/21 04:04:50;;;;;;;10.70;4.15;;;;;;;;;;5052515;28;20045;-71
2022/11/21 04:07:16;;;;;;;15.60;4.15;;;;;;;;;;5050948;28;21013;-71
2022/11/21 04:09:42;;;;;;;18.08;7.75;;;;;;;;;;5054850;28;20047;-72
2022/11/21 04:12:08;;;;;;;13.30;3.67;;;;;;;;;;5054939;28;20057;-71
2022/11/21 04:14:34;;;;;;;11.73;3.85;;;;;;;;;;5052654;28;20459;-71
2022/11/21 04:17:00;;;;;;;13.38;5.18;;;;;;;;;;5034199;28;20131;-71
2022/11/21 04:19:26;;;;;;;13.40;6.70;;;;;;;;;;5051028;28;20112;-72
2022/11/21 04:21:52;;;;;;;15.00;3.63;;;;;;;;;;5033214;28;20219;-71
2022/11/21 04:24:18;;;;;;;15.23;4.32;;;;;;;;;;5050699;28;20040;-71
2022/11/21 04:26:44;;;;;;;21.85;6.15;;;;;;;;;;5052369;28;20045;-70
2022/11/21 04:29:11;;;;;;;13.75;4.50;;;;;;;;;;5053382;28;20044;-71
2022/11/21 04:31:37;;;;;;;19.67;4.90;;;;;;;;;;5046726;28;20044;-71
2022/11/21 04:34:03;;;;;;;25.05;4.70;;;;;;;;;;5022627;28;20048;-70
2022/11/21 04:36:29;;;;;;;14.10;4.50;;;;;;;;;;5047512;28;20044;-71
2022/11/21 04:38:55;;;;;;;12.30;4.70;;;;;;;;;;5021578;28;20045;-71
2022/11/21 04:41:21;;;;;;;15.40;4.43;;;;;;;;;;5030903;28;20049;-71
2022/11/21 04:43:47;;;;;;;13.63;5.13;;;;;;;;;;5051182;28;20151;-71
2022/11/21 04:46:13;;;;;;;23.92;7.03;;;;;;;;;;5052585;28;20051;-71
2022/11/21 04:48:39;;;;;;;22.25;7.38;;;;;;;;;;5034294;28;20965;-71
2022/11/21 04:51:05;;;;;;;21.75;6.90;;;;;;;;;;5052638;28;20041;-71
2022/11/21 04:53:31;;;;;;;15.38;5.43;;;;;;;;;;5052493;28;20073;-71
2022/11/21 04:55:58;;;;;;;20.48;4.95;;;;;;;;;;5026810;28;20053;-71
2022/11/21 04:58:25;;;;;;;16.48;5.63;;;;;;;;;;5052065;28;20150;-71
2022/11/21 05:00:51;;;;;;;17.10;5.30;;;;;;;;;;5027544;28;20049;-71
2022/11/21 05:03:17;;;;;;;12.85;4.47;;;;;;;;;;5052350;28;20037;-71
2022/11/21 05:05:43;;;;;;;11.18;4.03;;;;;;;;;;5050803;28;20053;-71
2022/11/21 05:08:09;;;;;;;8.10;3.92;;;;;;;;;;5050084;28;20045;-71
2022/11/21 05:13:19;;;;;;;18.70;4.80;;;;;;;;;;5028197;28;20041;-71
2022/11/21 05:13:21;;;;;;;9.50;3.22;;;;;;;;;;5053266;28;20536;-72
2022/11/21 05:15:50;;;;;;;12.38;3.70;;;;;;;;;;5053061;28;20076;-71
2022/11/21 05:18:17;;;;;;;7.40;2.80;;;;;;;;;;5050986;28;20037;-71
2022/11/21 05:20:43;;;;;;;16.90;5.28;;;;;;;;;;5029454;28;20055;-71
2022/11/21 05:23:09;;;;;;;12.57;3.97;;;;;;;;;;5052209;28;20044;-71
2022/11/21 05:25:35;;;;;;;20.38;3.88;;;;;;;;;;5052685;28;20040;-71
2022/11/21 05:28:02;;;;;;;14.77;3.83;;;;;;;;;;5034525;28;20040;-71
2022/11/21 05:30:28;;;;;;;9.90;4.97;;;;;;;;;;5035272;28;20038;-71
2022/11/21 05:32:54;;;;;;;10.50;5.63;;;;;;;;;;5048930;28;20045;-71
2022/11/21 05:35:20;;;;;;;17.70;5.05;;;;;;;;;;5052265;28;20045;-71
2022/11/21 05:37:46;;;;;;;10.88;4.28;;;;;;;;;;5038489;28;20049;-72
2022/11/21 05:40:12;;;;;;;14.07;4.30;;;;;;;;;;5030621;28;20075;-71
2022/11/21 05:45:24;;;;;;;12.40;4.35;;;;;;;;;;5055518;28;20558;-71
2022/11/21 05:47:50;;;;;;;12.63;5.85;;;;;;;;;;5055515;28;20214;-71
2022/11/21 05:50:16;;;;;;;15.85;5.72;;;;;;;;;;5052882;28;20087;-70
2022/11/21 05:52:42;;;;;;;27.88;8.52;;;;;;;;;;5053338;28;20049;-71
2022/11/21 05:55:08;;;;;;;17.83;6.40;;;;;;;;;;5056978;28;20049;-71
2022/11/21 05:57:34;;;;;;;9.23;3.42;;;;;;;;;;5053697;28;20061;-71
2022/11/21 06:00:00;;;;;;;18.60;4.97;;;;;;;;;;5051187;28;20065;-71
2022/11/21 06:05:11;;;;;;;15.43;5.18;;;;;;;;;;5051486;28;20053;-72
2022/11/21 06:07:37;;;;;;;8.80;4.15;;;;;;;;;;5033344;28;20045;-71
2022/11/21 06:10:03;;;;;;;15.25;3.58;;;;;;;;;;5036698;28;20155;-71
2022/11/21 06:12:29;;;;;;;10.35;5.32;;;;;;;;;;5055222;28;20056;-72
2022/11/21 06:14:55;;;;;;;6.00;3.92;;;;;;;;;;5056020;28;20175;-70
2022/11/21 06:17:21;;;;;;;5.85;2.88;;;;;;;;;;5057790;28;20052;-71
2022/11/21 06:19:47;;;;;;;7.07;3.85;;;;;;;;;;5057925;28;20041;-71
2022/11/21 06:22:13;;;;;;;10.60;3.80;;;;;;;;;;5057182;28;20675;-71
2022/11/21 06:24:39;;;;;;;9.98;3.28;;;;;;;;;;5058477;28;20112;-70
2022/11/21 06:27:05;;;;;;;6.43;4.00;;;;;;;;;;5057171;28;20049;-70
2022/11/21 06:29:31;;;;;;;19.13;4.85;;;;;;;;;;5058285;28;20041;-72
2022/11/21 06:31:58;;;;;;;9.48;3.67;;;;;;;;;;5057086;28;20037;-71
2022/11/21 06:34:25;;;;;;;12.80;4.85;;;;;;;;;;5057464;28;20049;-71
2022/11/21 06:36:51;;;;;;;14.82;4.70;;;;;;;;;;5038903;28;20045;-71
2022/11/21 06:39:17;;;;;;;11.40;4.95;;;;;;;;;;5039664;28;20091;-71
2022/11/21 06:41:49;;;;;;;11.85;5.65;;;;;;;;;;5032982;28;20041;-71
2022/11/21 06:44:16;;;;;;;12.52;5.05;;;;;;;;;;5057610;28;20037;-72
2022/11/21 06:46:42;;;;;;;12.63;3.92;;;;;;;;;;5054360;28;20037;-71
2022/11/21 06:49:08;;;;;;;12.77;6.53;;;;;;;;;;5056497;28;20051;-71
2022/11/21 06:51:34;;;;;;;11.50;4.68;;;;;;;;;;5056888;28;20119;-77
2022/11/21 06:54:00;;;;;;;17.25;7.07;;;;;;;;;;5056396;28;20349;-76
2022/11/21 06:56:27;;;;;;;14.57;5.32;;;;;;;;;;5057324;28;20331;-76
2022/11/21 06:58:53;;;;;;;10.25;4.47;;;;;;;;;;5038076;28;20037;-75
2022/11/21 07:01:19;;;;;;;15.20;5.80;;;;;;;;;;5037526;28;20049;-76
2022/11/21 07:03:45;;;;;;;9.32;4.47;;;;;;;;;;5037840;28;20057;-76
2022/11/21 07:06:11;;;;;;;10.05;3.83;;;;;;;;;;5054270;28;20056;-75
2022/11/21 07:08:39;;;;;;;12.65;4.82;;;;;;;;;;5034447;28;20045;-76
2022/11/21 07:11:07;;;;;;;7.57;3.45;;;;;;;;;;5025593;28;20512;-76
2022/11/21 07:13:33;;;;;;;22.90;6.78;;;;;;;;;;5054788;28;20127;-75
2022/11/21 07:16:01;;;;;;;8.82;4.32;;;;;;;;;;5037822;28;20218;-77
2022/11/21 07:18:27;;;;;;;11.55;4.18;;;;;;;;;;5038094;28;20040;-75
2022/11/21 07:20:57;;;;;;;11.65;3.55;;;;;;;;;;5055920;28;20051;-75
2022/11/21 07:23:23;;;;;;;14.27;4.55;;;;;;;;;;5055806;28;20047;-76
2022/11/21 07:25:49;;;;;;;8.73;4.13;;;;;;;;;;5055461;28;20045;-76
2022/11/21 07:28:15;;;;;;;11.18;4.65;;;;;;;;;;5055746;28;20076;-76
2022/11/21 07:30:41;;;;;;;15.07;5.13;;;;;;;;;;5055496;28;20072;-75
2022/11/21 07:33:08;;;;;;;7.57;3.90;;;;;;;;;;5053689;28;20076;-75
2022/11/21 07:35:34;;;;;;;10.00;3.67;;;;;;;;;;5055962;28;20040;-76
2022/11/21 07:38:01;;;;;;;15.95;3.88;;;;;;;;;;5054128;28;20040;-75
2022/11/21 07:40:27;;;;;;;9.32;3.65;;;;;;;;;;5055651;28;20041;-76
2022/11/21 07:42:53;;;;;;;6.93;3.78;;;;;;;;;;5028919;28;20541;-77
2022/11/21 07:45:20;;;;;;;8.48;3.35;;;;;;;;;;5055786;28;20692;-76
2022/11/21 07:47:46;;;;;;;8.80;4.28;;;;;;;;;;5055934;28;20179;-76
2022/11/21 07:50:12;;;;;;;11.05;3.35;;;;;;;;;;5052284;28;20075;-75
2022/11/21 07:52:38;;;;;;;9.68;3.42;;;;;;;;;;5055189;28;20750;-76
2022/11/21 07:55:05;;;;;;;11.13;3.85;;;;;;;;;;5054439;28;20124;-76
2022/11/21 07:57:31;;;;;;;12.80;3.70;;;;;;;;;;5057021;28;20048;-76
2022/11/21 07:59:57;;;;;;;8.50;3.47;;;;;;;;;;5057016;28;20099;-76
2022/11/21 08:02:25;;;;;;;11.82;4.38;;;;;;;;;;5055446;28;21315;-76
2022/11/21 08:04:51;;;;;;;13.10;3.90;;;;;;;;;;5056799;28;20052;-74
2022/11/21 08:07:18;;;;;;;8.52;3.78;;;;;;;;;;5037036;28;20057;-76
2022/11/21 08:09:44;;;;;;;14.45;4.22;;;;;;;;;;5039722;28;20041;-77
2022/11/21 08:12:10;;;;;;;14.68;3.45;;;;;;;;;;5057332;28;20462;-76
2022/11/21 08:14:36;;;;;;;17.15;6.28;;;;;;;;;;5056065;28;20307;-76
2022/11/21 08:17:03;;;;;;;16.40;4.65;;;;;;;;;;5055673;28;21324;-75
2022/11/21 08:19:29;;;;;;;15.48;6.20;;;;;;;;;;5039955;28;20503;-76
2022/11/21 08:21:55;;;;;;;23.05;4.30;;;;;;;;;;5054894;28;20125;-75
2022/11/21 08:24:21;;;;;;;16.52;5.72;;;;;;;;;;5056883;28;20048;-75
2022/11/21 08:26:47;;;;;;;14.45;3.53;;;;;;;;;;5056975;28;20049;-76
2022/11/21 08:29:16;;;;;;;15.50;3.67;;;;;;;;;;5057445;28;20037;-75
2022/11/21 08:31:43;;;;;;;14.60;4.65;;;;;;;;;;5056609;28;20049;-76
2022/11/21 08:34:09;;;;;;;17.50;5.00;;;;;;;;;;5038404;28;20045;-77
2022/11/21 08:36:35;;;;;;;10.38;4.43;;;;;;;;;;5056821;28;20114;-77
2022/11/21 08:39:02;;;;;;;17.08;5.35;;;;;;;;;;5056989;28;20044;-76
2022/11/21 08:44:12;;;;;;;25.27;5.20;;;;;;;;;;5056957;28;20049;-77
2022/11/21 08:46:39;;;;;;;15.15;3.63;;;;;;;;;;5033228;28;20096;-76
2022/11/21 08:49:05;;;;;;;16.52;5.00;;;;;;;;;;5057335;28;20045;-77
2022/11/21 08:51:32;;;;;;;12.15;3.80;;;;;;;;;;5057720;28;20045;-76
2022/11/21 08:53:58;;;;;;;12.68;5.45;;;;;;;;;;5056552;28;20052;-76
2022/11/21 08:56:24;;;;;;;15.85;5.97;;;;;;;;;;5057176;28;20040;-76
2022/11/21 08:58:50;;;;;;;13.20;5.20;;;;;;;;;;5057789;28;20580;-76
2022/11/21 09:01:17;;;;;;;16.65;4.63;;;;;;;;;;5033370;28;21901;-76
2022/11/21 09:03:43;;;;;;;12.60;3.22;;;;;;;;;;5058236;28;20037;-77
2022/11/21 09:06:09;;;;;;;19.42;4.53;;;;;;;;;;5055603;28;20051;-76
2022/11/21 09:08:35;;;;;;;20.25;5.60;;;;;;;;;;5055894;28;20041;-76
2022/11/21 09:11:08;;;;;;;17.45;4.05;;;;;;;;;;5054292;28;20041;-76
2022/11/21 09:13:34;;;;;;;7.75;3.20;;;;;;;;;;5055526;28;20037;-76
2022/11/21 09:18:46;;;;;;;7.40;2.88;;;;;;;;;;5057653;28;20041;-77
2022/11/21 09:21:15;;;;;;;18.30;3.95;;;;;;;;;;5038344;28;20041;-77
2022/11/21 09:23:42;;;;;;;14.00;3.95;;;;;;;;;;5038721;28;20033;-77
2022/11/21 09:26:08;;;;;;;17.73;3.70;;;;;;;;;;5055580;28;20045;-76
2022/11/21 09:28:37;;;;;;;14.85;3.85;;;;;;;;;;5056611;28;20043;-77
2022/11/21 09:31:04;;;;;;;17.67;3.20;;;;;;;;;;5057155;28;20090;-76
2022/11/21 09:33:31;;;;;;;12.00;4.18;;;;;;;;;;5031957;28;20065;-77
2022/11/21 09:36:00;;;;;;;10.45;3.97;;;;;;;;;;5032442;28;20044;-76
2022/11/21 09:38:28;;;;;;;18.38;4.72;;;;;;;;;;5037662;28;20092;-76
2022/11/21 09:41:50;;;;;;;14.75;3.75;;;;;;;;;;5057694;28;20523;-75
2022/11/21 09:44:01;;;;;;;22.30;4.57;;;;;;;;;;5056009;28;20128;-76
2022/11/21 09:46:30;;;;;;;13.15;3.15;;;;;;;;;;5055004;28;20044;-75
2022/11/21 09:49:00;;;;;;;14.85;3.45;;;;;;;;;;5039136;28;20041;-75
2022/11/21 09:51:28;;;;;;;17.25;2.95;;;;;;;;;;5056009;28;20092;-76
2022/11/21 09:53:59;;;;;;;11.95;4.03;;;;;;;;;;5056556;28;20127;-76
2022/11/21 09:56:25;;;;;;;18.00;3.63;;;;;;;;;;5036708;28;20448;-75
2022/11/21 09:58:55;;;;;;;23.30;6.07;;;;;;;;;;5057062;28;20099;-75
2022/11/21 10:01:21;;;;;;;12.00;5.22;;;;;;;;;;5055413;28;20041;-75
2022/11/21 10:03:48;;;;;;;25.98;5.53;;;;;;;;;;5057516;28;20044;-75
2022/11/21 10:06:17;;;;;;;9.52;3.58;;;;;;;;;;5037476;28;20060;-76
2022/11/21 10:08:47;;;;;;;9.48;3.90;;;;;;;;;;5056870;28;20558;-76
2022/11/21 10:11:25;;;;;;;14.23;3.78;;;;;;;;;;5055456;28;20055;-76
2022/11/21 10:13:54;;;;;;;12.25;4.25;;;;;;;;;;5056147;28;20049;-76
2022/11/21 10:16:26;;;;;;;9.15;4.68;;;;;;;;;;5055257;28;20060;-76
2022/11/21 10:19:15;;;;;;;13.10;5.25;;;;;;;;;;5056898;28;20045;-76
2022/11/21 10:21:51;;;;;;;14.93;4.32;;;;;;;;;;5045298;28;20653;-74
2022/11/21 10:24:29;;;;;;;23.33;6.72;;;;;;;;;;5059672;28;20051;-75
2022/11/21 10:27:07;;;;;;;10.90;3.40;;;;;;;;;;5060353;28;20041;-75
2022/11/21 10:29:42;;;;;;;13.43;3.42;;;;;;;;;;5060309;28;20067;-76
2022/11/21 10:32:17;;;;;;;11.90;2.75;;;;;;;;;;5059871;28;20049;-76
2022/11/21 10:34:44;;;;;;;10.15;4.15;;;;;;;;;;5061057;28;20048;-76
2022/11/21 10:37:15;;;;;;;13.00;3.13;;;;;;;;;;5058092;28;20037;-76
2022/11/21 10:39:44;;;;;;;13.27;4.15;;;;;;;;;;5060897;28;20087;-76
2022/11/21 10:42:17;;;;;;;11.65;2.53;;;;;;;;;;5060353;28;20072;-76
2022/11/21 10:47:32;;;;;;;11.77;5.15;;;;;;;;;;5059060;28;20066;-77
2022/11/21 10:50:16;;;;;;;10.95;3.05;;;;;;;;;;5059253;28;20052;-76
2022/11/21 10:54:31;;;;;;;11.13;4.70;;;;;;;;;;5033434;28;20064;-76
2022/11/21 10:56:00;;;;;;;9.90;3.22;;;;;;;;;;5055786;28;20096;-76
2022/11/21 10:58:56;;;;;;;9.48;2.88;;;;;;;;;;5058611;28;20037;-77
2022/11/21 11:01:35;;;;;;;11.52;4.25;;;;;;;;;;5029661;28;20115;-77
2022/11/21 11:04:10;;;;;;;16.15;4.25;;;;;;;;;;5058629;28;20048;-76
2022/11/21 11:06:43;;;;;;;12.98;2.97;;;;;;;;;;5057461;28;20051;-76
2022/11/21 11:09:28;;;;;;;15.10;3.70;;;;;;;;;;5039097;28;20048;-75
2022/11/21 11:12:14;;;;;;;15.15;3.85;;;;;;;;;;5040064;28;20029;-75
2022/11/21 11:14:40;;;;;;;17.38;4.32;;;;;;;;;;5033735;28;20575;-74
2022/11/21 11:17:13;;;;;;;13.10;5.40;;;;;;;;;;5033679;28;20808;-76
2022/11/21 11:19:39;;;;;;;16.75;3.92;;;;;;;;;;5040102;28;20534;-75
2022/11/21 11:22:25;;;;;;;9.18;4.00;;;;;;;;;;5057464;28;20045;-75
2022/11/21 11:24:52;;;;;;;9.68;3.38;;;;;;;;;;5058420;28;20111;-75
2022/11/21 11:27:26;;;;;;;10.98;4.03;;;;;;;;;;5058302;28;20060;-75
2022/11/21 11:29:52;;;;;;;9.57;2.35;;;;;;;;;;5058050;28;20041;-75
2022/11/21 11:32:18;;;;;;;12.05;3.10;;;;;;;;;;5058036;28;20806;-75
2022/11/21 11:34:47;;;;;;;12.73;3.10;;;;;;;;;;5058197;28;20049;-76
2022/11/21 11:37:17;;;;;;;10.32;2.63;;;;;;;;;;5038863;28;20041;-75
2022/11/21 11:39:43;;;;;;;14.75;3.35;;;;;;;;;;5033744;28;20120;-75
2022/11/21 11:48:10;;;;;;;6.22;2.97;;;;;;;;;;5057412;28;20045;-75
2022/11/21 11:50:42;;;;;;;9.95;4.07;;;;;;;;;;5058026;28;20613;-75
2022/11/21 11:53:23;;;;;;;16.98;2.92;;;;;;;;;;5033598;28;21331;-75
2022/11/21 11:56:04;;;;;;;15.23;2.53;;;;;;;;;;5038957;28;20046;-75
2022/11/21 11:58:39;;;;;;;13.13;2.53;;;;;;;;;;5056896;28;20432;-79
2022/11/21 12:01:08;;;;;;;10.38;3.33;;;;;;;;;;5032849;28;20159;-79
2022/11/21 12:03:43;;;;;;;13.63;3.47;;;;;;;;;;5040541;28;20040;-79
2022/11/21 12:06:16;;;;;;;11.20;5.20;;;;;;;;;;5052315;28;20049;-78
2022/11/21 12:08:46;;;;;;;15.73;2.60;;;;;;;;;;5030622;28;20195;-79
2022/11/21 12:14:11;;;;;;;8.15;2.75;;;;;;;;;;5038102;28;20058;-79
2022/11/21 12:16:37;;;;;;;;;;;;;;;;;;5031867;28;20049;-79
2022/11/21 12:19:07;;;;;;;8.45;4.60;;;;;;;;;;5030056;28;19920;-79
2022/11/21 12:21:33;;;;;;;10.82;2.40;;;;;;;;;;5038191;28;20037;-79
2022/11/21 12:24:02;;;;;;;9.18;2.78;;;;;;;;;;5038214;28;20052;-79
2022/11/21 12:26:40;;;;;;;11.52;5.45;;;;;;;;;;5028529;28;20041;-79
2022/11/21 12:29:06;;;;;;;14.05;5.00;;;;;;;;;;5028548;28;20037;-79
2022/11/21 12:31:43;;;;;;;7.75;2.88;;;;;;;;;;5036937;28;20037;-79
2022/11/21 12:34:20;;;;;;;14.30;2.47;;;;;;;;;;5028292;28;20258;-79
2022/11/21 12:36:52;;;;;;;10.40;4.13;;;;;;;;;;5036811;28;20041;-79
2022/11/21 12:39:37;;;;;;;8.95;2.90;;;;;;;;;;5029169;28;20112;-79
2022/11/21 12:45:17;;;;;;;8.55;3.17;;;;;;;;;;5036534;28;20053;-79
2022/11/21 12:56:26;;;;;;;14.02;3.58;;;;;;;;;;5037419;28;20053;-79
2022/11/21 12:58:53;;;;;;;7.20;2.92;;;;;;;;;;5029658;28;20053;-79
2022/11/21 13:01:34;;;;;;;6.80;2.40;;;;;;;;;;5035748;28;20048;-80
2022/11/21 13:04:05;;;;;;;11.75;2.95;;;;;;;;;;5037651;28;20052;-80
2022/11/21 13:06:33;;;;;;;4.03;2.17;;;;;;;;;;5029355;28;20061;-80
2022/11/21 13:09:01;;;;;;;10.82;2.55;;;;;;;;;;5029913;28;20046;-80
2022/11/21 13:11:59;;;;;;;8.98;3.63;;;;;;;;;;5036838;28;20127;-80
2022/11/21 13:14:38;;;;;;;5.90;2.15;;;;;;;;;;5028611;28;20050;-80
2022/11/21 13:17:10;;;;;;;8.15;2.92;;;;;;;;;;5037926;28;20106;-80
2022/11/21 13:20:03;;;;;;;3.35;1.73;;;;;;;;;;5036884;28;20046;-80
2022/11/21 13:22:35;;;;;;;7.97;3.80;;;;;;;;;;5012796;28;20042;-80
2022/11/21 13:25:24;;;;;;;10.73;3.20;;;;;;;;;;5030031;28;20053;-80
2022/11/21 13:27:50;;;;;;;6.93;3.05;;;;;;;;;;5029679;28;20061;-80
2022/11/21 13:30:17;;;;;;;3.45;2.05;;;;;;;;;;5037680;28;20055;-80
2022/11/21 13:32:47;;;;;;;4.30;1.85;;;;;;;;;;5037839;28;20042;-80
2022/11/21 13:35:19;;;;;;;7.82;2.13;;;;;;;;;;5037481;28;20044;-80
2022/11/21 13:37:45;;;;;;;;;;;;;;;;;;5030894;28;20045;-81
2022/11/21 13:40:29;;;;;;;4.07;2.05;;;;;;;;;;5037473;28;20296;-80
2022/11/21 13:43:21;;;;;;;6.00;1.67;;;;;;;;;;5029552;28;20049;-80
2022/11/21 13:45:49;;;;;;;2.55;1.35;;;;;;;;;;5034406;28;20057;-80
2022/11/21 13:48:20;;;;;;;4.20;1.45;;;;;;;;;;5038442;28;20127;-80
2022/11/21 13:50:46;;;;;;;4.22;2.55;;;;;;;;;;5038616;28;20629;-81
2022/11/21 13:53:15;;;;;;;4.50;1.58;;;;;;;;;;5038401;28;20046;-79
2022/11/21 13:56:00;;;;;;;5.93;1.45;;;;;;;;;;5031325;28;20034;-80
2022/11/21 13:58:45;;;;;;;6.38;2.28;;;;;;;;;;5042135;28;20045;-80
2022/11/21 14:01:40;;;;;;;3.00;1.20;;;;;;;;;;5043302;28;20172;-80
2022/11/21 14:04:25;;;;;;;2.30;1.25;;;;;;;;;;5030029;28;20815;-80
2022/11/21 14:06:51;;;;;;;3.50;1.40;;;;;;;;;;5062396;28;20052;-81
2022/11/21 14:09:19;;;;;;;3.80;2.15;;;;;;;;;;5061863;28;20087;-81
2022/11/21 14:11:48;;;;;;;4.97;2.05;;;;;;;;;;5062103;28;20049;-81
2022/11/21 14:14:43;;;;;;;6.00;2.40;;;;;;;;;;5061603;28;20040;-81
2022/11/21 14:17:25;;;;;;;4.60;2.15;;;;;;;;;;5001757;28;20254;-81
2022/11/21 14:19:51;;;;;;;3.00;1.73;;;;;;;;;;5075590;28;20041;-81
2022/11/21 14:22:28;;;;;;;3.80;1.70;;;;;;;;;;5063814;28;21491;-81
2022/11/21 14:24:55;;;;;;;3.28;1.30;;;;;;;;;;5065379;28;20041;-81
2022/11/21 14:27:27;;;;;;;6.65;1.60;;;;;;;;;;5061861;28;20037;-81
2022/11/21 14:29:53;;;;;;;1.58;1.20;;;;;;;;;;5064467;28;20033;-81
2022/11/21 14:32:25;;;;;;;5.13;1.60;;;;;;;;;;5062488;28;20117;-81
2022/11/21 14:34:51;;;;;;;;;;;;;;;;;;5040931;28;20953;-81
2022/11/21 14:37:17;;;;;;;1.95;1.20;;;;;;;;;;5064801;28;19920;-81
2022/11/21 14:39:45;;;;;;;3.92;1.42;;;;;;;;;;5044234;28;20036;-81
2022/11/21 14:42:12;;;;;;;4.05;2.42;;;;;;;;;;5062916;28;20037;-81
2022/11/21 14:44:38;;;;;;;3.67;2.33;;;;;;;;;;5062671;28;20045;-81
2022/11/21 14:47:18;;;;;;;3.80;2.83;;;;;;;;;;5062438;28;20040;-81
2022/11/21 14:49:51;;;;;;;4.68;3.42;;;;;;;;;;5061503;28;20049;-81
2022/11/21 14:52:29;;;;;;;5.15;2.78;;;;;;;;;;5062507;28;20045;-81
2022/11/21 14:55:03;;;;;;;7.35;3.72;;;;;;;;;;5043350;28;20128;-81
2022/11/21 14:57:35;;;;;;;5.20;2.00;;;;;;;;;;5062513;28;20041;-81
2022/11/21 15:00:04;;;;;;;3.42;1.60;;;;;;;;;;5062008;28;20041;-81
2022/11/21 15:02:31;;;;;;;8.98;3.63;;;;;;;;;;5061568;28;20089;-81
2022/11/21 15:05:01;;;;;;;4.00;2.95;;;;;;;;;;5061515;28;20148;-81
2022/11/21 15:07:28;;;;;;;3.30;2.10;;;;;;;;;;5037621;28;20067;-81
2022/11/21 15:09:54;;;;;;;2.22;1.00;;;;;;;;;;5042702;28;20162;-80
2022/11/21 15:12:29;;;;;;;3.28;1.40;;;;;;;;;;5061148;28;20128;-80
2022/11/21 15:15:28;;;;;;;5.80;1.85;;;;;;;;;;5059876;28;20055;-80
2022/11/21 15:17:58;;;;;;;2.88;1.38;;;;;;;;;;5010161;28;20049;-80
2022/11/21 15:20:25;;;;;;;3.67;1.30;;;;;;;;;;5058966;28;20203;-80